sensor_id;sensor_type;location;lat;lon;timestamp;temperature;humidity
52481;DHT22;38393;52.404;13.532;2023-04-06T00:01:19;2.50;92.90
52481;DHT22;38393;52.404;13.532;2023-04-06T00:03:44;2.50;92.90
52481;DHT22;38393;52.404;13.532;2023-04-06T00:06:10;2.50;93.00
52481;DHT22;38393;52.404;13.532;2023-04-06T00:08:35;2.40;93.00
52481;DHT22;38393;52.404;13.532;2023-04-06T00:11:01;2.40;93.10
52481;DHT22;38393;52.404;13.532;2023-04-06T00:13:26;2.30;93.20
52481;DHT22;38393;52.404;13.532;2023-04-06T00:15:52;2.40;93.10
52481;DHT22;38393;52.404;13.532;2023-04-06T00:18:17;2.30;93.30
52481;DHT22;38393;52.404;13.532;2023-04-06T00:20:43;2.20;93.40
52481;DHT22;38393;52.404;13.532;2023-04-06T00:23:08;2.20;93.70
52481;DHT22;38393;52.404;13.532;2023-04-06T00:25:34;2.20;93.80
52481;DHT22;38393;52.404;13.532;2023-04-06T00:27:59;2.20;93.80
52481;DHT22;38393;52.404;13.532;2023-04-06T00:30:25;2.00;93.90
52481;DHT22;38393;52.404;13.532;2023-04-06T00:32:50;2.10;94.00
52481;DHT22;38393;52.404;13.532;2023-04-06T00:35:16;2.10;94.10
52481;DHT22;38393;52.404;13.532;2023-04-06T00:37:41;2.10;94.50
52481;DHT22;38393;52.404;13.532;2023-04-06T00:40:07;2.10;94.20
52481;DHT22;38393;52.404;13.532;2023-04-06T00:42:33;2.10;94.20
52481;DHT22;38393;52.404;13.532;2023-04-06T00:44:59;2.00;94.20
52481;DHT22;38393;52.404;13.532;2023-04-06T00:47:25;2.10;94.00
52481;DHT22;38393;52.404;13.532;2023-04-06T00:49:52;2.10;93.90
52481;DHT22;38393;52.404;13.532;2023-04-06T00:52:19;2.20;93.70
52481;DHT22;38393;52.404;13.532;2023-04-06T00:54:45;2.20;93.60
52481;DHT22;38393;52.404;13.532;2023-04-06T00:57:11;2.20;93.80
52481;DHT22;38393;52.404;13.532;2023-04-06T00:59:37;2.10;93.80
52481;DHT22;38393;52.404;13.532;2023-04-06T01:02:03;2.20;94.00
52481;DHT22;38393;52.404;13.532;2023-04-06T01:04:29;2.20;94.00
52481;DHT22;38393;52.404;13.532;2023-04-06T01:06:55;2.20;94.10
52481;DHT22;38393;52.404;13.532;2023-04-06T01:09:21;2.20;94.10
52481;DHT22;38393;52.404;13.532;2023-04-06T01:11:46;2.10;94.20
52481;DHT22;38393;52.404;13.532;2023-04-06T01:14:12;2.20;94.00
52481;DHT22;38393;52.404;13.532;2023-04-06T01:16:37;2.20;94.10
52481;DHT22;38393;52.404;13.532;2023-04-06T01:19:10;2.20;94.10
52481;DHT22;38393;52.404;13.532;2023-04-06T01:21:40;2.20;94.10
52481;DHT22;38393;52.404;13.532;2023-04-06T01:24:07;2.20;94.10
52481;DHT22;38393;52.404;13.532;2023-04-06T01:26:33;2.20;94.20
52481;DHT22;38393;52.404;13.532;2023-04-06T01:28:59;2.20;94.20
52481;DHT22;38393;52.404;13.532;2023-04-06T01:31:25;2.20;94.20
52481;DHT22;38393;52.404;13.532;2023-04-06T01:33:54;2.10;94.20
52481;DHT22;38393;52.404;13.532;2023-04-06T01:36:20;2.20;94.20
52481;DHT22;38393;52.404;13.532;2023-04-06T01:38:46;2.20;94.20
52481;DHT22;38393;52.404;13.532;2023-04-06T01:41:11;2.20;94.50
52481;DHT22;38393;52.404;13.532;2023-04-06T01:43:37;2.20;94.00
52481;DHT22;38393;52.404;13.532;2023-04-06T01:46:03;2.20;94.00
52481;DHT22;38393;52.404;13.532;2023-04-06T01:48:28;2.10;94.20
52481;DHT22;38393;52.404;13.532;2023-04-06T01:50:54;2.20;94.30
52481;DHT22;38393;52.404;13.532;2023-04-06T01:53:20;2.20;94.80
52481;DHT22;38393;52.404;13.532;2023-04-06T01:55:46;2.10;94.50
52481;DHT22;38393;52.404;13.532;2023-04-06T01:58:12;2.00;95.00
52481;DHT22;38393;52.404;13.532;2023-04-06T02:00:37;2.10;94.60
52481;DHT22;38393;52.404;13.532;2023-04-06T02:03:03;2.10;94.50
52481;DHT22;38393;52.404;13.532;2023-04-06T02:05:30;2.00;94.40
52481;DHT22;38393;52.404;13.532;2023-04-06T02:07:56;2.00;94.40
52481;DHT22;38393;52.404;13.532;2023-04-06T02:10:22;2.00;94.50
52481;DHT22;38393;52.404;13.532;2023-04-06T02:12:48;1.90;94.50
52481;DHT22;38393;52.404;13.532;2023-04-06T02:15:13;1.90;94.70
52481;DHT22;38393;52.404;13.532;2023-04-06T02:17:39;1.90;94.80
52481;DHT22;38393;52.404;13.532;2023-04-06T02:20:06;1.70;94.80
52481;DHT22;38393;52.404;13.532;2023-04-06T02:22:31;1.70;94.90
52481;DHT22;38393;52.404;13.532;2023-04-06T02:24:57;1.60;95.00
52481;DHT22;38393;52.404;13.532;2023-04-06T02:27:22;1.60;95.10
52481;DHT22;38393;52.404;13.532;2023-04-06T02:29:48;1.60;95.10
52481;DHT22;38393;52.404;13.532;2023-04-06T02:32:13;1.50;95.10
52481;DHT22;38393;52.404;13.532;2023-04-06T02:34:39;1.50;95.10
52481;DHT22;38393;52.404;13.532;2023-04-06T02:37:04;1.40;95.30
52481;DHT22;38393;52.404;13.532;2023-04-06T02:39:30;1.40;95.50
52481;DHT22;38393;52.404;13.532;2023-04-06T02:41:55;1.30;95.60
52481;DHT22;38393;52.404;13.532;2023-04-06T02:44:22;1.20;95.60
52481;DHT22;38393;52.404;13.532;2023-04-06T02:46:47;1.20;95.70
52481;DHT22;38393;52.404;13.532;2023-04-06T02:49:13;1.20;95.90
52481;DHT22;38393;52.404;13.532;2023-04-06T02:51:38;1.20;96.00
52481;DHT22;38393;52.404;13.532;2023-04-06T02:54:04;1.10;96.10
52481;DHT22;38393;52.404;13.532;2023-04-06T02:56:30;1.10;96.30
52481;DHT22;38393;52.404;13.532;2023-04-06T02:58:55;1.00;96.70
52481;DHT22;38393;52.404;13.532;2023-04-06T03:01:21;1.00;96.40
52481;DHT22;38393;52.404;13.532;2023-04-06T03:03:46;0.90;96.50
52481;DHT22;38393;52.404;13.532;2023-04-06T03:06:11;0.90;96.70
52481;DHT22;38393;52.404;13.532;2023-04-06T03:08:37;0.80;96.70
52481;DHT22;38393;52.404;13.532;2023-04-06T03:11:02;0.70;96.90
52481;DHT22;38393;52.404;13.532;2023-04-06T03:13:28;0.70;97.00
52481;DHT22;38393;52.404;13.532;2023-04-06T03:15:53;0.60;97.20
52481;DHT22;38393;52.404;13.532;2023-04-06T03:18:22;0.50;97.30
52481;DHT22;38393;52.404;13.532;2023-04-06T03:20:51;0.80;97.60
52481;DHT22;38393;52.404;13.532;2023-04-06T03:23:16;0.60;97.60
52481;DHT22;38393;52.404;13.532;2023-04-06T03:25:42;0.60;97.60
52481;DHT22;38393;52.404;13.532;2023-04-06T03:28:07;0.60;97.60
52481;DHT22;38393;52.404;13.532;2023-04-06T03:30:34;0.30;97.70
52481;DHT22;38393;52.404;13.532;2023-04-06T03:32:59;0.40;97.80
52481;DHT22;38393;52.404;13.532;2023-04-06T03:35:25;0.50;97.80
52481;DHT22;38393;52.404;13.532;2023-04-06T03:37:50;0.30;97.70
52481;DHT22;38393;52.404;13.532;2023-04-06T03:40:16;0.10;97.70
52481;DHT22;38393;52.404;13.532;2023-04-06T03:42:41;0.10;97.70
52481;DHT22;38393;52.404;13.532;2023-04-06T03:45:07;0.10;97.70
52481;DHT22;38393;52.404;13.532;2023-04-06T03:47:33;0.00;97.70
52481;DHT22;38393;52.404;13.532;2023-04-06T03:49:58;-0.20;97.80
52481;DHT22;38393;52.404;13.532;2023-04-06T03:52:24;-0.10;97.80
52481;DHT22;38393;52.404;13.532;2023-04-06T03:54:50;-0.20;97.90
52481;DHT22;38393;52.404;13.532;2023-04-06T03:57:15;-0.30;97.90
52481;DHT22;38393;52.404;13.532;2023-04-06T03:59:40;-0.40;98.00
52481;DHT22;38393;52.404;13.532;2023-04-06T04:02:06;-0.30;98.00
52481;DHT22;38393;52.404;13.532;2023-04-06T04:04:31;-0.30;98.10
52481;DHT22;38393;52.404;13.532;2023-04-06T04:06:57;-0.30;98.30
52481;DHT22;38393;52.404;13.532;2023-04-06T04:09:22;-0.30;98.30
52481;DHT22;38393;52.404;13.532;2023-04-06T04:11:48;-0.30;98.40
52481;DHT22;38393;52.404;13.532;2023-04-06T04:14:13;-0.30;98.40
52481;DHT22;38393;52.404;13.532;2023-04-06T04:16:39;-0.30;98.50
52481;DHT22;38393;52.404;13.532;2023-04-06T04:19:05;-0.30;98.50
52481;DHT22;38393;52.404;13.532;2023-04-06T04:21:30;-0.50;98.50
52481;DHT22;38393;52.404;13.532;2023-04-06T04:23:56;-0.50;98.70
52481;DHT22;38393;52.404;13.532;2023-04-06T04:26:22;-0.40;98.70
52481;DHT22;38393;52.404;13.532;2023-04-06T04:28:47;-0.50;98.60
52481;DHT22;38393;52.404;13.532;2023-04-06T04:31:12;-0.50;98.70
52481;DHT22;38393;52.404;13.532;2023-04-06T04:33:38;-0.50;98.60
52481;DHT22;38393;52.404;13.532;2023-04-06T04:36:04;-0.50;98.70
52481;DHT22;38393;52.404;13.532;2023-04-06T04:38:29;-0.50;98.70
52481;DHT22;38393;52.404;13.532;2023-04-06T04:40:55;-0.50;98.60
52481;DHT22;38393;52.404;13.532;2023-04-06T04:43:20;-0.50;98.60
52481;DHT22;38393;52.404;13.532;2023-04-06T04:45:46;-0.50;98.70
52481;DHT22;38393;52.404;13.532;2023-04-06T04:48:11;-0.50;98.60
52481;DHT22;38393;52.404;13.532;2023-04-06T04:50:37;-0.50;98.60
52481;DHT22;38393;52.404;13.532;2023-04-06T04:53:02;-0.60;98.60
52481;DHT22;38393;52.404;13.532;2023-04-06T04:55:30;-0.60;98.60
52481;DHT22;38393;52.404;13.532;2023-04-06T04:57:56;-0.40;98.90
52481;DHT22;38393;52.404;13.532;2023-04-06T05:00:21;-0.40;99.00
52481;DHT22;38393;52.404;13.532;2023-04-06T05:02:47;-0.30;98.90
52481;DHT22;38393;52.404;13.532;2023-04-06T05:05:12;-0.30;98.90
52481;DHT22;38393;52.404;13.532;2023-04-06T05:07:38;-0.30;99.00
52481;DHT22;38393;52.404;13.532;2023-04-06T05:10:03;-0.20;99.00
52481;DHT22;38393;52.404;13.532;2023-04-06T05:12:29;-0.10;99.00
52481;DHT22;38393;52.404;13.532;2023-04-06T05:14:55;-0.10;99.00
52481;DHT22;38393;52.404;13.532;2023-04-06T05:17:20;0.00;99.10
52481;DHT22;38393;52.404;13.532;2023-04-06T05:19:46;0.20;99.10
52481;DHT22;38393;52.404;13.532;2023-04-06T05:22:11;0.30;99.00
52481;DHT22;38393;52.404;13.532;2023-04-06T05:24:39;0.20;98.70
52481;DHT22;38393;52.404;13.532;2023-04-06T05:27:05;0.30;98.70
52481;DHT22;38393;52.404;13.532;2023-04-06T05:29:30;0.40;98.60
52481;DHT22;38393;52.404;13.532;2023-04-06T05:31:56;0.60;98.50
52481;DHT22;38393;52.404;13.532;2023-04-06T05:34:21;0.80;98.50
52481;DHT22;38393;52.404;13.532;2023-04-06T05:36:47;0.70;98.30
52481;DHT22;38393;52.404;13.532;2023-04-06T05:39:12;0.80;98.20
52481;DHT22;38393;52.404;13.532;2023-04-06T05:41:38;0.90;98.10
52481;DHT22;38393;52.404;13.532;2023-04-06T05:44:03;1.00;97.80
52481;DHT22;38393;52.404;13.532;2023-04-06T05:46:29;1.20;97.70
52481;DHT22;38393;52.404;13.532;2023-04-06T05:48:54;1.30;97.50
52481;DHT22;38393;52.404;13.532;2023-04-06T05:51:20;1.40;97.20
52481;DHT22;38393;52.404;13.532;2023-04-06T05:53:46;1.50;97.00
52481;DHT22;38393;52.404;13.532;2023-04-06T05:56:11;1.60;96.60
52481;DHT22;38393;52.404;13.532;2023-04-06T05:58:37;1.80;96.40
52481;DHT22;38393;52.404;13.532;2023-04-06T06:01:03;1.90;96.00
52481;DHT22;38393;52.404;13.532;2023-04-06T06:03:30;2.00;95.80
52481;DHT22;38393;52.404;13.532;2023-04-06T06:06:03;2.10;95.40
52481;DHT22;38393;52.404;13.532;2023-04-06T06:08:29;2.30;95.10
52481;DHT22;38393;52.404;13.532;2023-04-06T06:10:55;2.40;94.50
52481;DHT22;38393;52.404;13.532;2023-04-06T06:13:21;2.60;94.20
52481;DHT22;38393;52.404;13.532;2023-04-06T06:15:47;2.80;93.70
52481;DHT22;38393;52.404;13.532;2023-04-06T06:18:12;2.80;93.40
52481;DHT22;38393;52.404;13.532;2023-04-06T06:20:38;2.90;92.90
52481;DHT22;38393;52.404;13.532;2023-04-06T06:23:03;3.10;92.60
52481;DHT22;38393;52.404;13.532;2023-04-06T06:25:29;3.30;92.00
52481;DHT22;38393;52.404;13.532;2023-04-06T06:27:56;3.40;91.70
52481;DHT22;38393;52.404;13.532;2023-04-06T06:30:21;3.40;91.50
52481;DHT22;38393;52.404;13.532;2023-04-06T06:32:47;3.60;91.20
52481;DHT22;38393;52.404;13.532;2023-04-06T06:35:12;3.70;90.80
52481;DHT22;38393;52.404;13.532;2023-04-06T06:37:38;3.80;90.10
52481;DHT22;38393;52.404;13.532;2023-04-06T06:40:04;3.90;90.00
52481;DHT22;38393;52.404;13.532;2023-04-06T06:42:29;3.90;90.10
52481;DHT22;38393;52.404;13.532;2023-04-06T06:44:55;4.10;90.10
52481;DHT22;38393;52.404;13.532;2023-04-06T06:47:20;4.10;90.10
52481;DHT22;38393;52.404;13.532;2023-04-06T06:49:46;4.30;89.60
52481;DHT22;38393;52.404;13.532;2023-04-06T06:52:11;4.40;89.20
52481;DHT22;38393;52.404;13.532;2023-04-06T06:54:37;4.40;89.00
52481;DHT22;38393;52.404;13.532;2023-04-06T06:57:02;4.60;87.90
52481;DHT22;38393;52.404;13.532;2023-04-06T06:59:27;4.70;87.60
52481;DHT22;38393;52.404;13.532;2023-04-06T07:01:53;4.90;86.50
52481;DHT22;38393;52.404;13.532;2023-04-06T07:04:18;4.90;86.40
52481;DHT22;38393;52.404;13.532;2023-04-06T07:06:44;5.20;86.10
52481;DHT22;38393;52.404;13.532;2023-04-06T07:09:09;5.10;86.10
52481;DHT22;38393;52.404;13.532;2023-04-06T07:11:35;5.30;85.00
52481;DHT22;38393;52.404;13.532;2023-04-06T07:14:01;5.40;82.60
52481;DHT22;38393;52.404;13.532;2023-04-06T07:16:26;5.60;81.60
52481;DHT22;38393;52.404;13.532;2023-04-06T07:18:51;5.80;79.40
52481;DHT22;38393;52.404;13.532;2023-04-06T07:21:17;5.90;79.30
52481;DHT22;38393;52.404;13.532;2023-04-06T07:23:42;6.00;78.40
52481;DHT22;38393;52.404;13.532;2023-04-06T07:26:08;6.10;77.40
52481;DHT22;38393;52.404;13.532;2023-04-06T07:28:34;6.40;77.30
52481;DHT22;38393;52.404;13.532;2023-04-06T07:30:59;6.60;74.50
52481;DHT22;38393;52.404;13.532;2023-04-06T07:33:25;6.60;72.90
52481;DHT22;38393;52.404;13.532;2023-04-06T07:35:55;6.70;71.50
52481;DHT22;38393;52.404;13.532;2023-04-06T07:38:20;6.70;70.60
52481;DHT22;38393;52.404;13.532;2023-04-06T07:40:46;6.80;71.20
52481;DHT22;38393;52.404;13.532;2023-04-06T07:43:11;6.90;69.20
52481;DHT22;38393;52.404;13.532;2023-04-06T07:45:37;6.90;69.20
52481;DHT22;38393;52.404;13.532;2023-04-06T07:48:02;7.20;68.60
52481;DHT22;38393;52.404;13.532;2023-04-06T07:50:28;7.20;66.70
52481;DHT22;38393;52.404;13.532;2023-04-06T07:52:53;7.40;65.40
52481;DHT22;38393;52.404;13.532;2023-04-06T07:55:19;7.40;65.70
52481;DHT22;38393;52.404;13.532;2023-04-06T07:57:44;7.40;63.40
52481;DHT22;38393;52.404;13.532;2023-04-06T08:00:10;7.70;62.80
52481;DHT22;38393;52.404;13.532;2023-04-06T08:02:36;7.60;60.70
52481;DHT22;38393;52.404;13.532;2023-04-06T08:05:02;7.60;59.60
52481;DHT22;38393;52.404;13.532;2023-04-06T08:07:27;7.80;61.80
52481;DHT22;38393;52.404;13.532;2023-04-06T08:09:53;7.90;59.90
52481;DHT22;38393;52.404;13.532;2023-04-06T08:12:18;7.90;58.80
52481;DHT22;38393;52.404;13.532;2023-04-06T08:14:44;8.00;58.30
52481;DHT22;38393;52.404;13.532;2023-04-06T08:17:09;7.90;58.60
52481;DHT22;38393;52.404;13.532;2023-04-06T08:19:35;8.20;58.50
52481;DHT22;38393;52.404;13.532;2023-04-06T08:22:00;8.30;57.00
52481;DHT22;38393;52.404;13.532;2023-04-06T08:24:26;8.30;56.60
52481;DHT22;38393;52.404;13.532;2023-04-06T08:26:52;8.10;56.40
52481;DHT22;38393;52.404;13.532;2023-04-06T08:29:17;8.20;58.10
52481;DHT22;38393;52.404;13.532;2023-04-06T08:31:43;8.20;57.10
52481;DHT22;38393;52.404;13.532;2023-04-06T08:34:09;8.40;57.20
52481;DHT22;38393;52.404;13.532;2023-04-06T08:36:35;8.30;55.90
52481;DHT22;38393;52.404;13.532;2023-04-06T08:39:01;8.40;56.80
52481;DHT22;38393;52.404;13.532;2023-04-06T08:41:27;8.50;56.00
52481;DHT22;38393;52.404;13.532;2023-04-06T08:43:58;8.50;55.20
52481;DHT22;38393;52.404;13.532;2023-04-06T08:46:24;8.70;55.70
52481;DHT22;38393;52.404;13.532;2023-04-06T08:49:01;8.80;53.70
52481;DHT22;38393;52.404;13.532;2023-04-06T08:51:28;8.90;53.10
52481;DHT22;38393;52.404;13.532;2023-04-06T08:53:55;8.80;53.40
52481;DHT22;38393;52.404;13.532;2023-04-06T08:56:22;8.70;51.10
52481;DHT22;38393;52.404;13.532;2023-04-06T08:58:47;8.90;50.90
52481;DHT22;38393;52.404;13.532;2023-04-06T09:01:14;8.90;51.30
52481;DHT22;38393;52.404;13.532;2023-04-06T09:03:42;9.00;50.70
52481;DHT22;38393;52.404;13.532;2023-04-06T09:06:09;9.00;51.60
52481;DHT22;38393;52.404;13.532;2023-04-06T09:08:37;9.20;52.50
52481;DHT22;38393;52.404;13.532;2023-04-06T09:11:04;9.20;50.60
52481;DHT22;38393;52.404;13.532;2023-04-06T09:13:30;9.20;52.00
52481;DHT22;38393;52.404;13.532;2023-04-06T09:16:00;9.20;50.20
52481;DHT22;38393;52.404;13.532;2023-04-06T09:18:33;9.40;50.80
52481;DHT22;38393;52.404;13.532;2023-04-06T09:21:01;9.20;50.50
52481;DHT22;38393;52.404;13.532;2023-04-06T09:23:27;9.30;51.90
52481;DHT22;38393;52.404;13.532;2023-04-06T09:26:10;9.40;49.90
52481;DHT22;38393;52.404;13.532;2023-04-06T09:28:58;9.40;51.00
52481;DHT22;38393;52.404;13.532;2023-04-06T09:31:30;9.10;50.50
52481;DHT22;38393;52.404;13.532;2023-04-06T09:33:58;9.00;50.50
52481;DHT22;38393;52.404;13.532;2023-04-06T09:36:35;9.00;51.80
52481;DHT22;38393;52.404;13.532;2023-04-06T09:39:02;9.00;49.60
52481;DHT22;38393;52.404;13.532;2023-04-06T09:41:30;9.00;52.10
52481;DHT22;38393;52.404;13.532;2023-04-06T09:44:07;9.30;52.00
52481;DHT22;38393;52.404;13.532;2023-04-06T09:46:42;9.50;50.10
52481;DHT22;38393;52.404;13.532;2023-04-06T09:49:08;9.90;49.90
52481;DHT22;38393;52.404;13.532;2023-04-06T09:51:46;10.20;49.00
52481;DHT22;38393;52.404;13.532;2023-04-06T09:54:18;10.00;45.50
52481;DHT22;38393;52.404;13.532;2023-04-06T09:56:48;9.60;47.70
52481;DHT22;38393;52.404;13.532;2023-04-06T09:59:25;9.80;49.10
52481;DHT22;38393;52.404;13.532;2023-04-06T10:01:52;10.10;48.60
52481;DHT22;38393;52.404;13.532;2023-04-06T10:06:57;9.60;48.50
52481;DHT22;38393;52.404;13.532;2023-04-06T10:09:25;9.50;48.20
52481;DHT22;38393;52.404;13.532;2023-04-06T10:11:54;9.40;47.80
52481;DHT22;38393;52.404;13.532;2023-04-06T10:14:20;9.90;47.60
52481;DHT22;38393;52.404;13.532;2023-04-06T10:16:48;10.10;48.00
52481;DHT22;38393;52.404;13.532;2023-04-06T10:19:18;10.20;46.60
52481;DHT22;38393;52.404;13.532;2023-04-06T10:21:48;10.20;47.60
52481;DHT22;38393;52.404;13.532;2023-04-06T10:24:15;10.80;45.30
52481;DHT22;38393;52.404;13.532;2023-04-06T10:26:42;11.00;44.90
52481;DHT22;38393;52.404;13.532;2023-04-06T10:29:07;11.20;44.20
52481;DHT22;38393;52.404;13.532;2023-04-06T10:31:38;11.10;44.90
52481;DHT22;38393;52.404;13.532;2023-04-06T10:34:04;10.90;44.90
52481;DHT22;38393;52.404;13.532;2023-04-06T10:36:34;10.40;45.30
52481;DHT22;38393;52.404;13.532;2023-04-06T10:39:04;10.40;46.60
52481;DHT22;38393;52.404;13.532;2023-04-06T10:41:35;10.30;46.90
52481;DHT22;38393;52.404;13.532;2023-04-06T10:44:01;10.30;47.40
52481;DHT22;38393;52.404;13.532;2023-04-06T10:46:31;10.20;46.60
52481;DHT22;38393;52.404;13.532;2023-04-06T10:48:57;10.50;44.10
52481;DHT22;38393;52.404;13.532;2023-04-06T10:51:28;10.90;43.40
52481;DHT22;38393;52.404;13.532;2023-04-06T10:53:54;11.40;44.20
52481;DHT22;38393;52.404;13.532;2023-04-06T10:56:22;12.00;43.80
52481;DHT22;38393;52.404;13.532;2023-04-06T10:58:52;11.80;43.80
52481;DHT22;38393;52.404;13.532;2023-04-06T11:01:20;11.90;42.50
52481;DHT22;38393;52.404;13.532;2023-04-06T11:03:47;12.00;39.10
52481;DHT22;38393;52.404;13.532;2023-04-06T11:06:28;11.70;37.70
52481;DHT22;38393;52.404;13.532;2023-04-06T11:08:55;10.80;37.80
52481;DHT22;38393;52.404;13.532;2023-04-06T11:11:23;10.50;40.90
52481;DHT22;38393;52.404;13.532;2023-04-06T11:13:55;10.10;41.40
52481;DHT22;38393;52.404;13.532;2023-04-06T11:16:22;9.90;43.40
52481;DHT22;38393;52.404;13.532;2023-04-06T11:18:57;10.00;43.60
52481;DHT22;38393;52.404;13.532;2023-04-06T11:21:34;9.90;42.60
52481;DHT22;38393;52.404;13.532;2023-04-06T11:26:49;10.10;44.70
52481;DHT22;38393;52.404;13.532;2023-04-06T11:29:18;10.10;45.10
52481;DHT22;38393;52.404;13.532;2023-04-06T11:31:51;10.50;44.00
52481;DHT22;38393;52.404;13.532;2023-04-06T11:34:24;10.70;44.70
52481;DHT22;38393;52.404;13.532;2023-04-06T11:37:01;10.80;44.50
52481;DHT22;38393;52.404;13.532;2023-04-06T11:39:29;10.90;44.40
52481;DHT22;38393;52.404;13.532;2023-04-06T11:41:57;10.70;43.00
52481;DHT22;38393;52.404;13.532;2023-04-06T11:44:45;10.60;43.70
52481;DHT22;38393;52.404;13.532;2023-04-06T11:47:15;10.70;43.90
52481;DHT22;38393;52.404;13.532;2023-04-06T11:49:42;10.90;45.10
52481;DHT22;38393;52.404;13.532;2023-04-06T11:52:22;11.30;45.40
52481;DHT22;38393;52.404;13.532;2023-04-06T11:54:49;11.20;40.00
52481;DHT22;38393;52.404;13.532;2023-04-06T11:57:16;11.40;39.50
52481;DHT22;38393;52.404;13.532;2023-04-06T11:59:42;11.60;41.40
52481;DHT22;38393;52.404;13.532;2023-04-06T12:02:07;11.80;40.70
52481;DHT22;38393;52.404;13.532;2023-04-06T12:04:33;11.70;40.90
52481;DHT22;38393;52.404;13.532;2023-04-06T12:06:58;12.00;42.30
52481;DHT22;38393;52.404;13.532;2023-04-06T12:09:24;12.00;42.00
52481;DHT22;38393;52.404;13.532;2023-04-06T12:11:50;12.10;41.50
52481;DHT22;38393;52.404;13.532;2023-04-06T12:14:16;12.00;40.60
52481;DHT22;38393;52.404;13.532;2023-04-06T12:16:41;11.80;41.30
52481;DHT22;38393;52.404;13.532;2023-04-06T12:19:07;12.00;41.40
52481;DHT22;38393;52.404;13.532;2023-04-06T12:21:33;11.70;40.70
52481;DHT22;38393;52.404;13.532;2023-04-06T12:24:00;11.90;41.30
52481;DHT22;38393;52.404;13.532;2023-04-06T12:26:27;12.10;39.90
52481;DHT22;38393;52.404;13.532;2023-04-06T12:28:52;11.90;39.50
52481;DHT22;38393;52.404;13.532;2023-04-06T12:31:20;12.00;40.40
52481;DHT22;38393;52.404;13.532;2023-04-06T12:33:47;12.10;39.80
52481;DHT22;38393;52.404;13.532;2023-04-06T12:36:14;12.20;41.10
52481;DHT22;38393;52.404;13.532;2023-04-06T12:38:41;12.10;40.00
52481;DHT22;38393;52.404;13.532;2023-04-06T12:41:07;12.20;40.70
52481;DHT22;38393;52.404;13.532;2023-04-06T12:43:33;11.90;39.00
52481;DHT22;38393;52.404;13.532;2023-04-06T12:45:58;11.80;39.70
52481;DHT22;38393;52.404;13.532;2023-04-06T12:48:25;11.90;40.50
52481;DHT22;38393;52.404;13.532;2023-04-06T12:51:02;12.00;39.70
52481;DHT22;38393;52.404;13.532;2023-04-06T12:53:27;12.00;40.50
52481;DHT22;38393;52.404;13.532;2023-04-06T12:55:57;12.00;38.50
52481;DHT22;38393;52.404;13.532;2023-04-06T12:58:24;12.20;38.80
52481;DHT22;38393;52.404;13.532;2023-04-06T13:00:52;12.00;39.00
52481;DHT22;38393;52.404;13.532;2023-04-06T13:03:18;12.10;39.30
52481;DHT22;38393;52.404;13.532;2023-04-06T13:05:46;12.40;38.90
52481;DHT22;38393;52.404;13.532;2023-04-06T13:08:13;12.70;39.50
52481;DHT22;38393;52.404;13.532;2023-04-06T13:10:47;12.60;38.30
52481;DHT22;38393;52.404;13.532;2023-04-06T13:13:16;12.70;39.50
52481;DHT22;38393;52.404;13.532;2023-04-06T13:15:42;12.80;41.40
52481;DHT22;38393;52.404;13.532;2023-04-06T13:18:08;13.20;39.60
52481;DHT22;38393;52.404;13.532;2023-04-06T13:20:34;12.90;39.50
52481;DHT22;38393;52.404;13.532;2023-04-06T13:23:00;12.90;39.80
52481;DHT22;38393;52.404;13.532;2023-04-06T13:25:25;13.30;38.30
52481;DHT22;38393;52.404;13.532;2023-04-06T13:27:51;13.50;38.60
52481;DHT22;38393;52.404;13.532;2023-04-06T13:30:16;13.60;38.70
52481;DHT22;38393;52.404;13.532;2023-04-06T13:32:42;13.20;36.20
52481;DHT22;38393;52.404;13.532;2023-04-06T13:35:08;12.90;38.90
52481;DHT22;38393;52.404;13.532;2023-04-06T13:37:34;12.90;38.50
52481;DHT22;38393;52.404;13.532;2023-04-06T13:39:59;13.00;36.90
52481;DHT22;38393;52.404;13.532;2023-04-06T13:42:26;13.30;37.60
52481;DHT22;38393;52.404;13.532;2023-04-06T13:44:52;12.50;35.40
52481;DHT22;38393;52.404;13.532;2023-04-06T13:47:18;12.40;37.40
52481;DHT22;38393;52.404;13.532;2023-04-06T13:49:43;12.50;38.00
52481;DHT22;38393;52.404;13.532;2023-04-06T13:52:09;12.70;38.50
52481;DHT22;38393;52.404;13.532;2023-04-06T13:54:35;12.80;39.70
52481;DHT22;38393;52.404;13.532;2023-04-06T13:57:01;13.00;39.80
52481;DHT22;38393;52.404;13.532;2023-04-06T13:59:32;12.90;39.80
52481;DHT22;38393;52.404;13.532;2023-04-06T14:01:57;13.00;41.00
52481;DHT22;38393;52.404;13.532;2023-04-06T14:04:23;13.30;40.20
52481;DHT22;38393;52.404;13.532;2023-04-06T14:06:48;13.40;39.30
52481;DHT22;38393;52.404;13.532;2023-04-06T14:09:14;13.20;37.80
52481;DHT22;38393;52.404;13.532;2023-04-06T14:11:39;13.10;37.70
52481;DHT22;38393;52.404;13.532;2023-04-06T14:14:05;13.40;39.80
52481;DHT22;38393;52.404;13.532;2023-04-06T14:16:30;13.20;39.40
52481;DHT22;38393;52.404;13.532;2023-04-06T14:18:56;13.30;39.40
52481;DHT22;38393;52.404;13.532;2023-04-06T14:21:23;13.00;38.30
52481;DHT22;38393;52.404;13.532;2023-04-06T14:23:48;12.80;40.00
52481;DHT22;38393;52.404;13.532;2023-04-06T14:26:14;12.40;40.00
52481;DHT22;38393;52.404;13.532;2023-04-06T14:28:41;12.80;39.70
52481;DHT22;38393;52.404;13.532;2023-04-06T14:31:10;12.50;40.10
52481;DHT22;38393;52.404;13.532;2023-04-06T14:33:40;12.00;40.70
52481;DHT22;38393;52.404;13.532;2023-04-06T14:36:07;12.10;41.50
52481;DHT22;38393;52.404;13.532;2023-04-06T14:38:32;12.20;40.50
52481;DHT22;38393;52.404;13.532;2023-04-06T14:40:58;12.20;39.20
52481;DHT22;38393;52.404;13.532;2023-04-06T14:43:23;12.40;41.30
52481;DHT22;38393;52.404;13.532;2023-04-06T14:45:49;12.50;40.80
52481;DHT22;38393;52.404;13.532;2023-04-06T14:48:15;12.60;41.90
52481;DHT22;38393;52.404;13.532;2023-04-06T14:50:54;12.50;41.50
52481;DHT22;38393;52.404;13.532;2023-04-06T14:53:21;12.60;40.30
52481;DHT22;38393;52.404;13.532;2023-04-06T14:55:46;12.50;41.10
52481;DHT22;38393;52.404;13.532;2023-04-06T14:58:12;12.30;40.40
52481;DHT22;38393;52.404;13.532;2023-04-06T15:00:38;12.30;41.50
52481;DHT22;38393;52.404;13.532;2023-04-06T15:03:04;12.10;41.10
52481;DHT22;38393;52.404;13.532;2023-04-06T15:05:29;12.10;40.70
52481;DHT22;38393;52.404;13.532;2023-04-06T15:07:56;12.00;41.80
52481;DHT22;38393;52.404;13.532;2023-04-06T15:10:21;11.80;41.20
52481;DHT22;38393;52.404;13.532;2023-04-06T15:12:47;11.70;40.90
52481;DHT22;38393;52.404;13.532;2023-04-06T15:15:12;11.80;42.50
52481;DHT22;38393;52.404;13.532;2023-04-06T15:17:38;11.80;41.80
52481;DHT22;38393;52.404;13.532;2023-04-06T15:20:05;11.70;42.80
52481;DHT22;38393;52.404;13.532;2023-04-06T15:22:30;11.60;41.70
52481;DHT22;38393;52.404;13.532;2023-04-06T15:24:56;11.60;43.00
52481;DHT22;38393;52.404;13.532;2023-04-06T15:27:21;11.60;42.00